createdAt,value
2022-07-25T00:01:06.141Z,18.33
2022-07-25T00:03:09.366Z,18.2
2022-07-25T00:05:09.838Z,18.02
2022-07-25T00:07:11.282Z,18.1
2022-07-25T00:09:12.860Z,18.09
2022-07-25T00:11:14.043Z,18.17
2022-07-25T00:13:15.179Z,18.13
2022-07-25T00:15:16.161Z,18.08
2022-07-25T00:17:17.457Z,18.09
2022-07-25T00:19:19.154Z,18.03
2022-07-25T00:21:20.015Z,17.91
2022-07-25T00:23:21.871Z,17.85
2022-07-25T00:25:23.478Z,17.76
2022-07-25T00:27:25.014Z,17.73
2022-07-25T00:29:25.904Z,17.62
2022-07-25T00:31:27.428Z,17.46
2022-07-25T00:35:30.218Z,17.67
2022-07-25T00:37:31.301Z,17.59
2022-07-25T00:39:32.718Z,17.54
2022-07-25T00:41:34.414Z,17.67
2022-07-25T00:43:36.107Z,17.55
2022-07-25T00:45:37.169Z,17.48
2022-07-25T00:47:38.798Z,17.42
2022-07-25T00:49:39.876Z,17.4
2022-07-25T00:51:40.773Z,17.4
2022-07-25T00:53:41.715Z,17.36
2022-07-25T00:55:43.403Z,17.32
2022-07-25T00:57:45.306Z,17.32
2022-07-25T00:59:46.936Z,17.24
2022-07-25T01:01:48.340Z,17.19
2022-07-25T01:03:49.346Z,17.12
2022-07-25T01:05:53.474Z,17.21
2022-07-25T01:07:51.602Z,17.15
2022-07-25T01:09:53.341Z,17.17
2022-07-25T01:11:54.235Z,17.29
2022-07-25T01:13:55.136Z,17.35
2022-07-25T01:15:56.542Z,17.29
2022-07-25T01:17:57.767Z,17.32
2022-07-25T01:19:59.543Z,17.29
2022-07-25T01:22:00.640Z,17.21
2022-07-25T01:24:02.084Z,17.09
2022-07-25T01:26:03.119Z,17.04
2022-07-25T01:28:04.201Z,16.92
2022-07-25T01:30:05.967Z,16.83
2022-07-25T01:32:07.076Z,16.68
2022-07-25T01:34:08.987Z,16.71
2022-07-25T01:36:09.860Z,16.7
2022-07-25T01:38:11.496Z,16.75
2022-07-25T01:40:13.253Z,16.72
2022-07-25T01:42:14.958Z,16.71
2022-07-25T01:44:16.181Z,16.72
2022-07-25T01:46:17.780Z,16.69
2022-07-25T01:48:18.762Z,16.62
2022-07-25T01:50:20.593Z,16.58
2022-07-25T01:52:21.894Z,16.64
2022-07-25T01:54:23.140Z,16.6
2022-07-25T01:56:24.698Z,16.55
2022-07-25T01:58:25.993Z,16.59
2022-07-25T02:00:27.284Z,16.56
2022-07-25T02:02:28.377Z,16.58
2022-07-25T02:04:30.077Z,16.54
2022-07-25T02:06:31.352Z,16.57
2022-07-25T02:08:32.563Z,16.56
2022-07-25T02:10:33.906Z,16.55
2022-07-25T02:12:34.870Z,16.55
2022-07-25T02:14:36.528Z,16.58
2022-07-25T02:16:37.795Z,16.6
2022-07-25T02:18:39.120Z,16.54
2022-07-25T02:20:40.460Z,16.52
2022-07-25T02:22:41.881Z,16.56
2022-07-25T02:24:43.481Z,16.55
2022-07-25T02:26:45.150Z,16.45
2022-07-25T02:28:46.657Z,16.35
2022-07-25T02:30:47.770Z,16.31
2022-07-25T02:32:49.057Z,16.24
2022-07-25T02:34:50.863Z,16.09
2022-07-25T02:36:52.127Z,15.99
2022-07-25T02:38:53.694Z,15.84
2022-07-25T02:40:55.149Z,15.77
2022-07-25T02:42:56.729Z,15.69
2022-07-25T02:44:58.229Z,15.59
2022-07-25T02:46:59.575Z,15.61
2022-07-25T02:49:01.013Z,15.54
2022-07-25T02:51:02.329Z,15.55
2022-07-25T02:53:03.722Z,15.76
2022-07-25T02:55:09.445Z,15.8
2022-07-25T02:57:05.723Z,15.81
2022-07-25T02:59:07.233Z,15.81
2022-07-25T03:01:09.057Z,15.83
2022-07-25T03:03:09.956Z,16
2022-07-25T03:05:11.372Z,16.06
2022-07-25T03:07:12.719Z,16.03
2022-07-25T03:09:13.910Z,15.89
2022-07-25T03:11:15.531Z,15.79
2022-07-25T03:13:16.421Z,15.75
2022-07-25T03:15:17.552Z,15.76
2022-07-25T03:17:19.048Z,15.78
2022-07-25T03:19:20.773Z,15.85
2022-07-25T03:21:22.552Z,15.92
2022-07-25T03:23:23.634Z,15.96
2022-07-25T03:25:25.395Z,15.85
2022-07-25T03:27:26.975Z,15.82
2022-07-25T03:29:28.273Z,15.74
2022-07-25T03:31:29.327Z,15.7
2022-07-25T03:33:30.668Z,15.65
2022-07-25T03:35:32.548Z,15.68
2022-07-25T03:37:33.916Z,15.76
2022-07-25T03:39:35.538Z,15.8
2022-07-25T03:41:37.043Z,15.76
2022-07-25T03:43:38.645Z,15.71
2022-07-25T03:45:39.871Z,15.74
2022-07-25T03:47:40.739Z,15.77
2022-07-25T03:49:42.183Z,15.75
2022-07-25T03:51:43.985Z,15.7
2022-07-25T03:53:44.964Z,15.66
2022-07-25T03:55:46.372Z,15.69
2022-07-25T03:57:47.663Z,15.72
2022-07-25T03:59:49.254Z,15.74
2022-07-25T04:01:50.881Z,15.74
2022-07-25T04:03:52.063Z,15.72
2022-07-25T04:05:53.326Z,15.79
2022-07-25T04:07:54.641Z,15.83
2022-07-25T04:09:56.273Z,15.82
2022-07-25T04:11:57.695Z,15.96
2022-07-25T04:13:58.925Z,16.07
2022-07-25T04:16:00.674Z,16.08
2022-07-25T04:18:01.653Z,16.07
2022-07-25T04:20:03.195Z,16.19
2022-07-25T04:22:04.978Z,16.25
2022-07-25T04:24:06.336Z,16.12
2022-07-25T04:26:07.930Z,16.05
2022-07-25T04:28:09.427Z,16.01
2022-07-25T04:30:10.990Z,16.27
2022-07-25T04:32:12.317Z,16.51
2022-07-25T04:34:13.996Z,16.65
2022-07-25T04:36:15.005Z,16.81
2022-07-25T04:38:16.445Z,16.83
2022-07-25T04:40:17.899Z,16.85
2022-07-25T04:42:19.365Z,16.86
2022-07-25T04:44:20.416Z,17.1
2022-07-25T04:46:22.112Z,17.26
2022-07-25T04:48:23.389Z,17.58
2022-07-25T04:50:25.143Z,18.03
2022-07-25T04:52:25.751Z,18.48
2022-07-25T04:54:27.051Z,19.15
2022-07-25T04:56:28.403Z,18.71
2022-07-25T04:58:29.697Z,19.42
2022-07-25T05:00:30.605Z,19.65
2022-07-25T05:02:31.511Z,19.59
2022-07-25T05:04:33.234Z,19.96
2022-07-25T05:06:34.395Z,20.39
2022-07-25T05:08:35.574Z,20.56
2022-07-25T05:10:36.514Z,20.7
2022-07-25T05:12:37.849Z,20.28
2022-07-25T05:14:39.011Z,20.33
2022-07-25T05:16:40.687Z,20.41
2022-07-25T05:18:41.750Z,19.91
2022-07-25T05:20:43.317Z,20.11
2022-07-25T05:22:44.948Z,20.35
2022-07-25T05:24:46.663Z,21.12
2022-07-25T05:26:48.148Z,21.39
2022-07-25T05:28:49.508Z,21.8
2022-07-25T05:30:51.031Z,20.84
2022-07-25T05:32:51.917Z,21.1
2022-07-25T05:34:53.653Z,21.15
2022-07-25T05:36:55.377Z,21.53
2022-07-25T05:38:56.620Z,21.88
2022-07-25T05:40:57.900Z,22.12
2022-07-25T05:43:02.847Z,22.02
2022-07-25T05:45:00.399Z,22.06
2022-07-25T05:47:01.629Z,22.55
2022-07-25T05:49:03.476Z,22.42
2022-07-25T05:51:04.462Z,23.03
2022-07-25T05:53:05.645Z,22.76
2022-07-25T05:55:06.971Z,23.03
2022-07-25T05:57:08.328Z,24.05
2022-07-25T05:59:09.759Z,23.61
2022-07-25T06:01:10.638Z,23.99
2022-07-25T06:03:12.102Z,24.62
2022-07-25T06:05:13.304Z,24.43
2022-07-25T06:07:14.239Z,24.74
2022-07-25T06:09:15.030Z,24.99
2022-07-25T06:11:16.103Z,25.28
2022-07-25T06:13:17.724Z,25.85
2022-07-25T06:15:22.666Z,25.37
2022-07-25T06:17:19.337Z,25.51
2022-07-25T06:19:20.802Z,25.88
2022-07-25T06:21:22.357Z,26.39
2022-07-25T06:23:23.283Z,26.32
2022-07-25T06:25:24.214Z,26.11
2022-07-25T06:27:29.182Z,25.95
2022-07-25T06:29:26.050Z,25.7
2022-07-25T06:32:11.591Z,25.54
2022-07-25T06:34:12.669Z,25.95
2022-07-25T06:36:13.518Z,26.13
2022-07-25T06:38:14.455Z,26.35
2022-07-25T06:40:15.458Z,26.59
2022-07-25T06:42:17.192Z,26.93
2022-07-25T06:44:18.846Z,26.77
2022-07-25T06:46:20.501Z,26.97
2022-07-25T06:48:22.199Z,27.25
2022-07-25T06:50:23.543Z,27.16
2022-07-25T06:52:25.042Z,27.86
2022-07-25T06:54:26.665Z,28.4
2022-07-25T06:56:28.002Z,28.61
2022-07-25T06:58:28.803Z,28.65
2022-07-25T07:00:30.439Z,29.1
2022-07-25T07:02:31.554Z,28.95
2022-07-25T07:04:32.815Z,28.91
2022-07-25T07:06:33.591Z,29.09
2022-07-25T07:08:34.897Z,29.35
2022-07-25T07:10:35.669Z,29.78
2022-07-25T07:12:36.549Z,30.27
2022-07-25T07:14:37.914Z,29.91
2022-07-25T07:16:38.851Z,29.86
2022-07-25T07:18:40.407Z,30.62
2022-07-25T07:20:41.783Z,30.3
2022-07-25T07:22:43.440Z,29.82
2022-07-25T07:24:45.084Z,29.68
2022-07-25T07:26:45.641Z,30.29
2022-07-25T07:28:46.678Z,30.62
2022-07-25T07:31:15.009Z,30.26
2022-07-25T07:32:49.187Z,30.67
2022-07-25T07:34:49.958Z,31.14
2022-07-25T07:36:51.509Z,30.31
2022-07-25T07:38:52.821Z,30.49
2022-07-25T07:40:54.554Z,30.63
2022-07-25T07:42:55.756Z,30.43
2022-07-25T07:44:56.763Z,30.59
2022-07-25T07:46:57.733Z,30.66
2022-07-25T07:48:58.926Z,31.09
2022-07-25T07:50:59.653Z,31.25
2022-07-25T07:53:00.986Z,30.81
2022-07-25T07:55:01.793Z,30.82
2022-07-25T07:57:02.529Z,30.89
2022-07-25T07:59:03.586Z,31.2
2022-07-25T08:01:04.416Z,31.18
2022-07-25T08:03:05.559Z,31.16
2022-07-25T08:05:06.933Z,31.59
2022-07-25T08:07:08.639Z,31.5
2022-07-25T08:09:10.277Z,31.48
2022-07-25T08:11:11.141Z,31.64
2022-07-25T08:13:12.199Z,32.02
2022-07-25T08:15:13.794Z,31.95
2022-07-25T08:17:15.076Z,31.6
2022-07-25T08:19:15.866Z,31.98
2022-07-25T08:21:17.123Z,31.96
2022-07-25T08:23:18.306Z,32.24
2022-07-25T08:25:19.284Z,31.82
2022-07-25T08:27:20.748Z,31.97
2022-07-25T08:29:26.277Z,31.86
2022-07-25T08:31:23.877Z,31.98
2022-07-25T08:33:25.029Z,31.83
2022-07-25T08:35:26.597Z,31.62
2022-07-25T08:37:27.517Z,31.91
2022-07-25T08:39:29.163Z,32.09
2022-07-25T08:41:29.943Z,32.09
2022-07-25T08:43:31.005Z,31.46
2022-07-25T08:45:32.429Z,31.47
2022-07-25T08:47:33.606Z,31.77
2022-07-25T08:49:35.057Z,31.94
2022-07-25T08:51:36.386Z,31.88
2022-07-25T08:53:37.175Z,31.86
2022-07-25T08:55:38.702Z,32.16
2022-07-25T08:57:39.651Z,31.9
2022-07-25T08:59:41.086Z,31.74
2022-07-25T09:01:42.201Z,32.36
2022-07-25T09:03:43.170Z,32.3
2022-07-25T09:05:43.962Z,32.58
2022-07-25T09:07:44.982Z,32.83
2022-07-25T09:09:46.490Z,32.31
2022-07-25T09:11:47.449Z,32.33
2022-07-25T09:13:48.773Z,32.53
2022-07-25T09:15:50.371Z,32.06
2022-07-25T09:17:51.731Z,32.22
2022-07-25T09:19:52.515Z,32.19
2022-07-25T09:21:53.714Z,32.02
2022-07-25T09:23:54.786Z,32.85
2022-07-25T09:25:56.009Z,32.9
2022-07-25T09:27:57.020Z,33.28
2022-07-25T09:29:58.228Z,32.76
2022-07-25T09:31:59.943Z,33.31
2022-07-25T09:34:01.477Z,33.14
2022-07-25T09:36:02.267Z,33.13
2022-07-25T09:38:03.767Z,33.2
2022-07-25T09:40:05.356Z,33.32
2022-07-25T09:42:07.096Z,33.52
2022-07-25T09:44:08.725Z,33.1
2022-07-25T09:46:09.919Z,33.42
2022-07-25T09:48:11.239Z,33.82
2022-07-25T09:50:12.603Z,32.94
2022-07-25T09:52:13.655Z,33.32
2022-07-25T09:54:14.611Z,32.82
2022-07-25T09:56:16.207Z,33.34
2022-07-25T09:58:17.492Z,33.73
2022-07-25T10:00:19.536Z,33.28
2022-07-25T10:02:20.210Z,33.45
2022-07-25T10:04:21.585Z,33.8
2022-07-25T10:06:22.368Z,33.43
2022-07-25T10:08:23.404Z,33.34
2022-07-25T10:10:24.289Z,33.71
2022-07-25T10:12:25.918Z,33.47
2022-07-25T10:14:26.727Z,33.25
2022-07-25T10:16:27.810Z,33.68
2022-07-25T10:18:28.768Z,33.91
2022-07-25T10:20:30.371Z,33.61
2022-07-25T10:22:54.084Z,33.78
2022-07-25T10:24:33.313Z,33.42
2022-07-25T10:26:34.519Z,34.29
2022-07-25T10:28:35.644Z,34.71
2022-07-25T10:30:37.287Z,33.84
2022-07-25T10:32:38.017Z,33.32
2022-07-25T10:34:39.623Z,33.86
2022-07-25T10:36:40.943Z,33.8
2022-07-25T10:38:42.387Z,33.79
2022-07-25T10:40:43.505Z,33.36
2022-07-25T10:42:44.375Z,33.5
2022-07-25T10:44:45.488Z,33.48
2022-07-25T10:46:46.924Z,33.56
2022-07-25T10:48:47.737Z,33.79
2022-07-25T10:50:55.197Z,33.32
2022-07-25T10:52:49.966Z,33.6
2022-07-25T10:54:51.056Z,33.72
2022-07-25T10:56:52.432Z,33.35
2022-07-25T10:58:53.917Z,34.05
2022-07-25T11:00:55.312Z,34.66
2022-07-25T11:02:56.443Z,34.02
2022-07-25T11:04:57.399Z,34.29
2022-07-25T11:06:58.650Z,34.23
2022-07-25T11:08:59.645Z,34.39
2022-07-25T11:11:00.940Z,34.08
2022-07-25T11:13:02.396Z,34.1
2022-07-25T11:15:03.628Z,34.51
2022-07-25T11:17:05.202Z,34.34
2022-07-25T11:19:06.418Z,34.77
2022-07-25T11:21:07.391Z,34.1
2022-07-25T11:23:08.900Z,34.75
2022-07-25T11:25:10.503Z,35.36
2022-07-25T11:27:11.709Z,34.88
2022-07-25T11:29:12.263Z,34.07
2022-07-25T11:31:13.303Z,34.7
2022-07-25T11:33:17.329Z,33.93
2022-07-25T11:35:15.629Z,34.27
2022-07-25T11:37:16.571Z,34.53
2022-07-25T11:39:18.926Z,34.72
2022-07-25T11:41:18.795Z,34.03
2022-07-25T11:43:20.212Z,35.23
2022-07-25T11:45:21.330Z,34.76
2022-07-25T11:47:22.361Z,34.34
2022-07-25T11:49:23.458Z,34.52
2022-07-25T11:51:24.216Z,35.06
2022-07-25T11:53:25.098Z,34.29
2022-07-25T11:55:26.236Z,34.88
2022-07-25T11:57:27.511Z,34.98
2022-07-25T11:59:29.154Z,35
2022-07-25T12:01:30.852Z,35.53
2022-07-25T12:03:32.384Z,35.41
2022-07-25T12:05:33.308Z,35.82
2022-07-25T12:07:34.320Z,35.55
2022-07-25T12:09:35.687Z,35.29
2022-07-25T12:11:36.605Z,35.33
2022-07-25T12:13:37.858Z,35.3
2022-07-25T12:15:39.504Z,35.08
2022-07-25T12:17:40.862Z,34.88
2022-07-25T12:19:42.026Z,34.84
2022-07-25T12:23:43.935Z,34.04
2022-07-25T12:25:44.868Z,33.84
2022-07-25T12:27:46.645Z,33.86
2022-07-25T12:29:47.734Z,34.04
2022-07-25T12:31:48.929Z,34.14
2022-07-25T12:33:50.156Z,34.08
2022-07-25T12:35:51.275Z,34.23
2022-07-25T12:37:52.871Z,34.44
2022-07-25T12:39:54.085Z,34.57
2022-07-25T12:41:55.181Z,34.34
2022-07-25T12:43:56.707Z,34.55
2022-07-25T12:45:58.308Z,34.85
2022-07-25T12:47:59.665Z,34.36
2022-07-25T12:50:00.621Z,34.01
2022-07-25T12:52:02.046Z,33.82
2022-07-25T12:54:03.620Z,34.04
2022-07-25T12:56:04.938Z,33.99
2022-07-25T12:58:06.445Z,34.3
2022-07-25T13:00:07.327Z,34.53
2022-07-25T13:02:09.007Z,34.14
2022-07-25T13:04:09.946Z,34.14
2022-07-25T13:06:11.318Z,33.97
2022-07-25T13:08:12.676Z,34.36
2022-07-25T13:10:14.271Z,34.5
2022-07-25T13:12:16.617Z,34.47
2022-07-25T13:14:17.573Z,34.32
2022-07-25T13:17:02.751Z,34.38
2022-07-25T13:19:03.605Z,34.38
2022-07-25T13:21:05.021Z,34.62
2022-07-25T13:23:06.180Z,34.63
2022-07-25T13:25:07.181Z,34.71
2022-07-25T13:27:08.063Z,35.36
2022-07-25T13:29:09.170Z,35.38
2022-07-25T13:31:10.148Z,35.37
2022-07-25T13:33:11.862Z,35.32
2022-07-25T13:35:14.533Z,34.83
2022-07-25T13:37:13.575Z,35.34
2022-07-25T13:39:14.671Z,34.69
2022-07-25T13:41:15.887Z,34.75
2022-07-25T13:43:16.613Z,34.35
2022-07-25T13:45:18.214Z,34.45
2022-07-25T13:47:19.946Z,34.35
2022-07-25T13:49:21.456Z,35.03
2022-07-25T13:51:22.308Z,34.77
2022-07-25T13:53:28.055Z,34.71
2022-07-25T13:55:24.614Z,34.84
2022-07-25T13:57:26.222Z,34.53
2022-07-25T13:59:27.478Z,34.59
2022-07-25T14:01:28.787Z,34.14
2022-07-25T14:03:29.511Z,34.23
2022-07-25T14:05:31.163Z,33.44
2022-07-25T14:07:32.456Z,33.43
2022-07-25T14:09:33.511Z,33.64
2022-07-25T14:11:34.457Z,34.01
2022-07-25T14:13:35.942Z,34.41
2022-07-25T14:15:37.112Z,35.34
2022-07-25T14:17:38.512Z,35.8
2022-07-25T14:19:39.574Z,35.03
2022-07-25T14:21:40.416Z,34.83
2022-07-25T14:23:41.853Z,34.25
2022-07-25T14:25:43.574Z,34.36
2022-07-25T14:27:44.312Z,34.12
2022-07-25T14:29:45.222Z,34.27
2022-07-25T14:31:46.127Z,34.24
2022-07-25T14:33:47.512Z,34.7
2022-07-25T14:35:48.276Z,34.68
2022-07-25T14:37:49.313Z,34.74
2022-07-25T14:39:50.861Z,34.47
2022-07-25T14:41:52.290Z,34.13
2022-07-25T14:43:53.298Z,33.78
2022-07-25T14:45:54.132Z,33.56
2022-07-25T14:47:54.926Z,33.51
2022-07-25T14:49:56.173Z,33.39
2022-07-25T14:51:56.935Z,33.09
2022-07-25T14:53:57.795Z,32.94
2022-07-25T14:58:00.160Z,32.86
2022-07-25T15:00:01.077Z,33.16
2022-07-25T15:02:02.385Z,31.95
2022-07-25T15:04:03.754Z,31.99
2022-07-25T15:06:05.427Z,31.82
2022-07-25T15:08:07.002Z,32.06
2022-07-25T15:10:07.929Z,31.73
2022-07-25T15:12:12.149Z,31.9
2022-07-25T15:14:10.183Z,31.98
2022-07-25T15:16:11.622Z,31.94
2022-07-25T15:18:14.050Z,31.93
2022-07-25T15:20:13.877Z,31.75
2022-07-25T15:22:15.157Z,31.76
2022-07-25T15:24:15.996Z,31.82
2022-07-25T15:26:16.874Z,31.68
2022-07-25T15:28:17.912Z,31.77
2022-07-25T15:30:18.818Z,31.63
2022-07-25T15:32:20.035Z,31.66
2022-07-25T15:34:21.825Z,31.59
2022-07-25T15:36:27.206Z,31.55
2022-07-25T15:38:24.489Z,31.49
2022-07-25T15:40:25.834Z,31.52
2022-07-25T15:42:29.318Z,31.5
2022-07-25T15:44:28.864Z,31.47
2022-07-25T15:46:29.992Z,31.49
2022-07-25T15:48:30.979Z,31.53
2022-07-25T15:50:32.462Z,31.59
2022-07-25T15:52:33.555Z,31.59
2022-07-25T15:54:35.201Z,31.61
2022-07-25T15:56:36.564Z,31.75
2022-07-25T15:58:37.797Z,31.83
2022-07-25T16:00:39.398Z,31.81
2022-07-25T16:02:40.296Z,31.88
2022-07-25T16:04:41.901Z,32
2022-07-25T16:06:43.002Z,31.89
2022-07-25T16:08:44.311Z,32.04
2022-07-25T16:10:45.697Z,32.05
2022-07-25T16:12:47.395Z,31.95
2022-07-25T16:14:48.439Z,32.03
2022-07-25T16:16:49.381Z,32.08
2022-07-25T16:18:50.398Z,32.2
2022-07-25T16:20:51.843Z,32.51
2022-07-25T16:22:53.334Z,32.48
2022-07-25T16:24:54.193Z,32.37
2022-07-25T16:26:55.173Z,32.37
2022-07-25T16:28:57.807Z,32.28
2022-07-25T16:30:57.308Z,32.35
2022-07-25T16:32:58.112Z,32.4
2022-07-25T16:34:59.475Z,32.77
2022-07-25T16:37:01.038Z,32.96
2022-07-25T16:39:02.451Z,32.86
2022-07-25T16:41:03.450Z,32.65
2022-07-25T16:43:04.539Z,32.38
2022-07-25T16:45:05.679Z,32.37
2022-07-25T16:47:06.859Z,32.25
2022-07-25T16:49:08.318Z,32.39
2022-07-25T16:51:09.523Z,32.28
2022-07-25T16:53:10.769Z,32.22
2022-07-25T16:55:11.663Z,32.4
2022-07-25T16:57:13.086Z,32.43
2022-07-25T16:59:14.281Z,32.37
2022-07-25T17:01:15.714Z,32.24
2022-07-25T17:03:16.928Z,32.14
2022-07-25T17:05:17.768Z,31.99
2022-07-25T17:07:18.842Z,31.91
2022-07-25T17:09:20.527Z,31.86
2022-07-25T17:11:21.733Z,31.86
2022-07-25T17:13:23.114Z,31.78
2022-07-25T17:15:24.489Z,31.71
2022-07-25T17:17:26.005Z,31.58
2022-07-25T17:19:27.370Z,31.6
2022-07-25T17:21:28.572Z,31.57
2022-07-25T17:23:30.058Z,31.5
2022-07-25T17:25:31.060Z,31.46
2022-07-25T17:27:32.346Z,31.44
2022-07-25T17:29:33.620Z,31.46
2022-07-25T17:31:35.371Z,31.38
2022-07-25T17:33:36.826Z,31.37
2022-07-25T17:35:38.234Z,31.45
2022-07-25T17:37:39.870Z,31.37
2022-07-25T17:39:41.147Z,31.43
2022-07-25T17:41:42.652Z,31.36
2022-07-25T17:43:44.176Z,31.31
2022-07-25T17:45:45.286Z,31.33
2022-07-25T17:47:47.033Z,31.33
2022-07-25T17:49:48.581Z,31.33
2022-07-25T17:51:49.428Z,31.26
2022-07-25T17:53:50.994Z,31.21
2022-07-25T17:55:52.622Z,31.21
2022-07-25T17:57:53.474Z,31.13
2022-07-25T17:59:54.441Z,31.06
2022-07-25T18:01:55.220Z,31.01
2022-07-25T18:03:56.914Z,30.91
2022-07-25T18:05:58.312Z,30.82
2022-07-25T18:07:59.939Z,30.72
2022-07-25T18:10:01.490Z,30.67
2022-07-25T18:12:02.684Z,30.59
2022-07-25T18:14:04.594Z,30.55
2022-07-25T18:16:05.587Z,30.46
2022-07-25T18:18:07.173Z,30.41
2022-07-25T18:20:08.202Z,30.32
2022-07-25T18:22:09.309Z,30.34
2022-07-25T18:24:10.607Z,30.33
2022-07-25T18:26:11.987Z,30.32
2022-07-25T18:28:12.838Z,30.3
2022-07-25T18:30:14.330Z,30.22
2022-07-25T18:32:15.921Z,30.12
2022-07-25T18:34:17.624Z,30.08
2022-07-25T18:36:18.539Z,29.95
2022-07-25T18:38:19.915Z,29.76
2022-07-25T18:40:20.929Z,29.64
2022-07-25T18:42:25.000Z,29.52
2022-07-25T18:44:23.615Z,29.35
2022-07-25T18:46:24.988Z,29.29
2022-07-25T18:48:29.006Z,29.2
2022-07-25T18:50:27.521Z,29.03
2022-07-25T18:52:29.126Z,28.91
2022-07-25T18:54:30.217Z,28.82
2022-07-25T18:56:31.883Z,28.77
2022-07-25T18:58:32.778Z,28.58
2022-07-25T19:00:34.506Z,28.5
2022-07-25T19:02:35.455Z,28.43
2022-07-25T19:04:36.460Z,28.35
2022-07-25T19:06:38.223Z,28.28
2022-07-25T19:08:39.910Z,28.27
2022-07-25T19:10:41.175Z,28.09
2022-07-25T19:12:42.677Z,28.01
2022-07-25T19:14:43.775Z,27.87
2022-07-25T19:16:44.881Z,27.8
2022-07-25T19:18:46.264Z,27.67
2022-07-25T19:20:48.050Z,27.7
2022-07-25T19:22:49.280Z,27.77
2022-07-25T19:24:50.253Z,27.75
2022-07-25T19:26:51.868Z,27.57
2022-07-25T19:28:53.510Z,27.57
2022-07-25T19:30:54.913Z,27.39
2022-07-25T19:32:56.251Z,27.34
2022-07-25T19:34:57.947Z,27.32
2022-07-25T19:36:59.731Z,27.26
2022-07-25T19:39:01.258Z,27.21
2022-07-25T19:41:03.033Z,27.04
2022-07-25T19:43:04.201Z,27.03
2022-07-25T19:45:05.098Z,26.87
2022-07-25T19:47:09.841Z,26.85
2022-07-25T19:49:07.085Z,26.95
2022-07-25T19:51:08.048Z,26.9
2022-07-25T19:53:09.775Z,26.85
2022-07-25T19:55:11.464Z,26.97
2022-07-25T19:57:12.663Z,26.79
2022-07-25T19:59:14.093Z,26.67
2022-07-25T20:01:59.501Z,26.41
2022-07-25T20:04:01.030Z,26.3
2022-07-25T20:06:06.152Z,26.32
2022-07-25T20:08:03.238Z,26.28
2022-07-25T20:10:04.976Z,26.28
2022-07-25T20:12:06.117Z,26.28
2022-07-25T20:14:07.958Z,26.13
2022-07-25T20:16:08.571Z,26.03
2022-07-25T20:18:10.060Z,26
2022-07-25T20:20:11.181Z,26.08
2022-07-25T20:22:12.922Z,26.05
2022-07-25T20:24:18.082Z,25.95
2022-07-25T20:26:16.433Z,26.12
2022-07-25T20:28:17.428Z,26.13
2022-07-25T20:30:18.582Z,26.01
2022-07-25T20:32:20.075Z,26.04
2022-07-25T20:36:21.909Z,25.8
2022-07-25T20:38:23.602Z,25.78
2022-07-25T20:40:25.148Z,25.79
2022-07-25T20:42:26.249Z,25.81
2022-07-25T20:44:27.221Z,25.68
2022-07-25T20:46:28.420Z,25.59
2022-07-25T20:48:29.454Z,25.64
2022-07-25T20:50:30.173Z,25.52
2022-07-25T20:52:31.577Z,25.49
2022-07-25T20:54:33.243Z,25.38
2022-07-25T20:56:34.654Z,25.37
2022-07-25T20:58:35.903Z,25.37
2022-07-25T21:00:37.363Z,25.33
2022-07-25T21:02:39.108Z,25.31
2022-07-25T21:04:40.413Z,25.2
2022-07-25T21:06:42.282Z,25.18
2022-07-25T21:08:43.637Z,25.09
2022-07-25T21:10:45.040Z,25.01
2022-07-25T21:12:46.615Z,24.9
2022-07-25T21:14:47.506Z,24.86
2022-07-25T21:16:48.895Z,24.73
2022-07-25T21:18:50.511Z,24.65
2022-07-25T21:20:51.589Z,24.66
2022-07-25T21:22:52.885Z,24.63
2022-07-25T21:24:53.740Z,24.55
2022-07-25T21:26:54.940Z,24.46
2022-07-25T21:28:55.941Z,24.51
2022-07-25T21:30:57.517Z,24.47
2022-07-25T21:32:58.539Z,24.38
2022-07-25T21:34:59.562Z,24.36
2022-07-25T21:37:00.392Z,24.32
2022-07-25T21:39:01.666Z,24.28
2022-07-25T21:41:02.906Z,24.12
2022-07-25T21:43:04.745Z,24
2022-07-25T21:45:05.992Z,23.83
2022-07-25T21:47:07.081Z,23.79
2022-07-25T21:49:08.294Z,23.81
2022-07-25T21:51:09.674Z,23.77
2022-07-25T21:53:10.723Z,23.61
2022-07-25T21:55:11.582Z,23.52
2022-07-25T21:57:14.105Z,23.6
2022-07-25T21:59:14.513Z,23.56
2022-07-25T22:01:16.218Z,23.5
2022-07-25T22:03:17.373Z,23.44
2022-07-25T22:05:18.673Z,23.29
2022-07-25T22:07:19.915Z,23.38
2022-07-25T22:09:21.710Z,23.26
2022-07-25T22:11:39.303Z,23.09
2022-07-25T22:13:24.482Z,23.25
2022-07-25T22:15:25.548Z,23.29
2022-07-25T22:17:27.177Z,23.2
2022-07-25T22:19:28.821Z,23.21
2022-07-25T22:21:29.724Z,23.09
2022-07-25T22:23:31.482Z,22.83
2022-07-25T22:25:33.325Z,22.62
2022-07-25T22:27:34.787Z,22.37
2022-07-25T22:29:36.373Z,22.21
2022-07-25T22:31:38.181Z,22.12
2022-07-25T22:33:39.780Z,22.02
2022-07-25T22:35:41.485Z,22
2022-07-25T22:37:43.213Z,21.83
2022-07-25T22:39:44.523Z,21.86
2022-07-25T22:41:45.585Z,21.82
2022-07-25T22:43:48.737Z,21.82
2022-07-25T22:45:48.126Z,21.77
2022-07-25T22:47:49.135Z,21.69
2022-07-25T22:49:50.326Z,21.52
2022-07-25T22:51:52.144Z,21.57
2022-07-25T22:53:53.467Z,21.59
2022-07-25T22:55:54.901Z,21.6
2022-07-25T22:57:55.871Z,21.53
2022-07-25T22:59:57.234Z,21.42
2022-07-25T23:01:58.512Z,21.34
2022-07-25T23:03:59.637Z,21.17
2022-07-25T23:06:00.702Z,21.23
2022-07-25T23:08:01.754Z,21.13
2022-07-25T23:10:03.538Z,21.06
2022-07-25T23:12:05.313Z,21.19
2022-07-25T23:14:06.183Z,21.35
2022-07-25T23:16:10.291Z,21.34
2022-07-25T23:18:08.652Z,21.29
2022-07-25T23:20:09.619Z,21.36
2022-07-25T23:22:10.561Z,21.39
2022-07-25T23:24:11.608Z,21.16
2022-07-25T23:26:13.199Z,20.99
2022-07-25T23:28:14.445Z,20.86
2022-07-25T23:30:16.105Z,20.92
2022-07-25T23:32:17.316Z,21.02
2022-07-25T23:34:18.885Z,20.97
2022-07-25T23:36:20.254Z,21.01
2022-07-25T23:38:21.772Z,21.09
2022-07-25T23:40:23.610Z,21.17
2022-07-25T23:42:25.268Z,21.2
2022-07-25T23:44:26.835Z,21.22
2022-07-25T23:46:29.214Z,21.34
2022-07-25T23:48:29.550Z,21.32
2022-07-25T23:50:31.325Z,21.43
2022-07-25T23:52:32.994Z,21.49
2022-07-25T23:54:33.975Z,21.57
2022-07-25T23:56:35.496Z,21.55
